Weather at Payerne Air Base

Public forecast

Using degrees Celsius for public forecast. Weather courtesy of forecast.io.

Current aviation weather report (METAR) for Payerne Air Base

Retrieved 2021/11/28 17:20 UTC (5 minutes ago):

LSMP 281720Z AUTO 23008KT 200V260 9999NDV SCT036 OVC070 03/M01 Q0998 RMK

Aviation forecast (TAF) for Payerne Air Base

Forecast is more than 6 hours old.

Retrieved 2021/11/28 10:00 UTC (7 hours ago):

TAF LSMP 280925Z 2810/2916 22007KT 9999 FEW050 BKN080 TEMPO 2810/2818 -SN PROB30 TEMPO 2810/2818 2000 SN BKN010